createdAt,value
2022-08-05T03:20:15.016Z,98700.53
2022-08-05T03:23:24.644Z,98674.22
2022-08-05T03:26:34.503Z,98670.75
2022-08-05T03:29:45.854Z,98659.53
2022-08-05T03:33:14.183Z,98666.56
2022-08-05T03:36:31.502Z,98641.53
2022-08-05T03:40:01.442Z,98612.88
2022-08-05T03:43:58.646Z,98605.09
2022-08-05T03:46:43.381Z,98597.13
2022-08-05T03:49:55.869Z,98598.00
2022-08-05T03:54:59.972Z,98613.56
2022-08-05T03:56:46.298Z,98632.56
2022-08-05T04:00:01.661Z,98634.94
2022-08-05T04:03:26.637Z,98625.25
2022-08-05T04:06:48.049Z,98639.06
2022-08-05T04:10:03.309Z,98648.47
2022-08-05T04:13:13.438Z,98650.88
2022-08-05T04:16:25.531Z,98643.69
2022-08-05T04:19:46.139Z,98624.69
2022-08-05T04:23:03.910Z,98631.75
2022-08-05T04:26:17.437Z,98647.41
2022-08-05T04:29:29.251Z,98652.63
2022-08-05T04:32:42.418Z,98641.44
2022-08-05T04:36:16.740Z,98659.06
2022-08-05T04:39:24.444Z,98658.28
2022-08-05T04:42:38.173Z,98662.63
2022-08-05T04:45:54.918Z,98648.66
2022-08-05T04:49:14.510Z,98669.53
2022-08-05T04:52:32.558Z,98696.41
2022-08-05T04:56:32.356Z,98714.56
2022-08-05T04:59:24.064Z,98676.16
2022-08-05T05:09:58.395Z,98687.50
2022-08-05T05:13:11.164Z,98672.06
2022-08-05T05:16:30.343Z,98657.53
2022-08-05T05:19:47.360Z,98671.56
2022-08-05T05:22:57.388Z,98663.88
2022-08-05T05:26:09.541Z,98664.06
2022-08-05T05:29:19.240Z,98659.03
2022-08-05T05:32:30.044Z,98656.47
2022-08-05T05:35:42.420Z,98636.47
2022-08-05T05:38:52.217Z,98649.53
2022-08-05T05:42:09.070Z,98645.22
2022-08-05T05:45:19.715Z,98642.16
2022-08-05T05:48:32.930Z,98634.72
2022-08-05T05:51:50.414Z,98624.53
2022-08-05T05:55:07.442Z,98632.72
2022-08-05T05:58:31.412Z,98614.75
2022-08-05T06:01:57.150Z,98622.84
2022-08-05T06:05:16.687Z,98618.56
2022-08-05T06:08:32.589Z,98596.63
2022-08-05T06:11:42.552Z,98591.22
2022-08-05T06:15:16.404Z,98571.50
2022-08-05T06:18:33.365Z,98564.25
2022-08-05T06:21:53.279Z,98547.78
2022-08-05T06:25:25.028Z,98530.41
2022-08-05T06:28:34.895Z,98585.31
2022-08-05T06:31:45.884Z,98619.41
2022-08-05T06:34:59.210Z,98625.38
2022-08-05T06:38:12.361Z,98633.22
2022-08-05T06:41:24.831Z,98643.00
2022-08-05T06:44:36.698Z,98659.75
2022-08-05T06:48:44.104Z,98690.25
2022-08-05T06:51:23.743Z,98691.28
2022-08-05T06:54:39.183Z,98703.59
2022-08-05T06:58:03.331Z,98712.41
2022-08-05T07:01:20.766Z,98721.19
2022-08-05T07:04:30.914Z,98703.66
2022-08-05T07:07:43.997Z,98720.91
2022-08-05T07:11:06.905Z,98728.72
2022-08-05T07:14:36.164Z,98730.41
2022-08-05T07:17:59.876Z,98733.78
2022-08-05T07:21:15.204Z,98749.38
2022-08-05T07:24:43.925Z,98735.47
2022-08-05T07:28:11.784Z,98745.31
2022-08-05T07:31:53.980Z,98748.31
2022-08-05T07:34:58.739Z,98745.13
2022-08-05T07:38:08.223Z,98736.28
2022-08-05T07:42:07.959Z,98746.63
2022-08-05T07:44:57.692Z,98726.19
2022-08-05T07:48:10.035Z,98721.72
2022-08-05T07:51:23.805Z,98730.31
2022-08-05T07:54:49.145Z,98713.69
2022-08-05T07:58:03.069Z,98728.53
2022-08-05T08:01:17.265Z,98727.66
2022-08-05T08:04:37.522Z,98745.38
2022-08-05T08:07:59.006Z,98737.09
2022-08-05T08:11:10.077Z,98731.22
2022-08-05T08:14:27.747Z,98737.47
2022-08-05T08:17:38.604Z,98743.72
2022-08-05T08:21:02.963Z,98735.19
2022-08-05T08:24:16.391Z,98724.97
2022-08-05T08:27:40.088Z,98740.75
2022-08-05T08:30:57.520Z,98729.50
2022-08-05T08:34:10.688Z,98729.63
2022-08-05T08:37:21.828Z,98721.97
2022-08-05T08:40:38.192Z,98709.22
2022-08-05T08:45:23.097Z,98693.69
2022-08-05T08:48:05.619Z,98683.97
2022-08-05T08:51:22.492Z,98690.19
2022-08-05T08:54:27.204Z,98698.22
2022-08-05T08:57:48.138Z,98683.50
2022-08-05T09:01:10.923Z,98686.19
2022-08-05T09:04:31.052Z,98694.53
2022-08-05T09:07:56.926Z,98717.59
2022-08-05T09:11:08.642Z,98724.72
2022-08-05T09:14:57.621Z,98754.69
2022-08-05T09:17:53.044Z,98762.25
2022-08-05T09:21:02.623Z,98754.09
2022-08-05T09:24:22.338Z,98763.31
2022-08-05T09:28:06.028Z,98747.81
2022-08-05T09:31:44.139Z,98736.31
2022-08-05T09:34:49.337Z,98731.84
2022-08-05T09:38:12.119Z,98729.53
2022-08-05T09:41:38.975Z,98723.56
2022-08-05T09:44:50.567Z,98726.31
2022-08-05T09:48:00.756Z,98725.69
2022-08-05T09:51:14.929Z,98736.53
2022-08-05T09:54:31.861Z,98737.47
2022-08-05T09:57:45.156Z,98742.88
2022-08-05T10:01:00.405Z,98758.75
2022-08-05T10:04:13.526Z,98757.78
2022-08-05T10:08:10.433Z,98755.88
2022-08-05T10:10:55.500Z,98751.94
2022-08-05T10:14:23.949Z,98748.81
2022-08-05T10:17:37.177Z,98752.59
2022-08-05T10:20:52.366Z,98743.06
2022-08-05T10:24:06.261Z,98741.91
2022-08-05T10:27:20.230Z,98726.91
2022-08-05T10:31:20.300Z,98736.38
2022-08-05T10:34:12.532Z,98744.63
2022-08-05T10:37:26.721Z,98727.56
2022-08-05T10:41:00.279Z,98736.16
2022-08-05T10:44:13.638Z,98744.16
2022-08-05T10:47:36.377Z,98736.38
2022-08-05T10:50:59.488Z,98737.03
2022-08-05T10:54:28.321Z,98734.09
2022-08-05T10:57:44.838Z,98731.59
2022-08-05T11:01:03.065Z,98728.34
2022-08-05T11:04:17.246Z,98747.78
2022-08-05T11:07:32.627Z,98752.22
2022-08-05T11:11:01.469Z,98761.03
2022-08-05T11:14:42.868Z,98767.41
2022-08-05T11:18:09.443Z,98767.44
2022-08-05T11:21:40.963Z,98765.84
2022-08-05T11:26:04.312Z,98761.03
2022-08-05T11:28:55.896Z,98762.16
2022-08-05T11:32:25.308Z,98757.47
2022-08-05T11:36:02.821Z,98767.41
2022-08-05T11:40:00.758Z,98772.19
2022-08-05T11:43:58.424Z,98784.81
2022-08-05T11:47:09.344Z,98779.53
2022-08-05T11:50:21.820Z,98786.66
2022-08-05T11:53:33.770Z,98784.16
2022-08-05T11:56:53.400Z,98783.22
2022-08-05T12:00:31.506Z,98791.13
2022-08-05T12:03:44.880Z,98801.59
2022-08-05T12:07:07.913Z,98802.41
2022-08-05T12:10:20.379Z,98793.66
2022-08-05T12:13:49.513Z,98802.47
2022-08-05T12:18:00.708Z,98802.47
2022-08-05T12:20:38.450Z,98811.16
2022-08-05T12:23:55.645Z,98819.69
2022-08-05T12:27:09.631Z,98821.25
2022-08-05T12:30:38.779Z,98821.13
2022-08-05T12:33:58.467Z,98829.66
2022-08-05T12:37:17.495Z,98845.41
2022-08-05T12:40:31.369Z,98851.47
2022-08-05T12:43:51.343Z,98854.91
2022-08-05T12:47:14.819Z,98860.84
2022-08-05T12:50:30.980Z,98864.28
2022-08-05T12:53:44.925Z,98866.53
2022-08-05T12:57:09.577Z,98849.16
2022-08-05T13:02:03.140Z,98858.13
2022-08-05T13:03:59.767Z,98849.56
2022-08-05T13:07:16.066Z,98849.81
2022-08-05T13:10:26.896Z,98835.16
2022-08-05T13:14:06.172Z,98829.28
2022-08-05T13:17:13.089Z,98827.53
2022-08-05T13:20:35.508Z,98824.81
2022-08-05T13:23:50.637Z,98810.47
2022-08-05T13:27:00.737Z,98808.69
2022-08-05T13:30:34.925Z,98806.19
2022-08-05T13:34:24.079Z,98809.91
2022-08-05T13:37:27.162Z,98819.13
2022-08-05T13:40:49.826Z,98840.66
2022-08-05T13:44:02.061Z,98849.69
2022-08-05T13:47:11.655Z,98851.88
2022-08-05T13:50:43.686Z,98861.28
2022-08-05T13:53:58.079Z,98861.75
2022-08-05T13:57:09.644Z,98862.94
2022-08-05T14:00:27.165Z,98873.31
2022-08-05T14:03:37.401Z,98880.72
2022-08-05T14:06:48.770Z,98877.53
2022-08-05T14:10:29.010Z,98901.34
2022-08-05T14:13:42.892Z,98900.09
2022-08-05T14:16:55.379Z,98901.22
2022-08-05T14:20:17.634Z,98911.94
2022-08-05T14:23:36.420Z,98917.00
2022-08-05T14:27:08.469Z,98921.47
2022-08-05T14:30:20.164Z,98925.56
2022-08-05T14:33:32.496Z,98922.88
2022-08-05T14:37:01.057Z,98917.06
2022-08-05T14:40:14.219Z,98925.66
2022-08-05T14:43:59.694Z,98916.97
2022-08-05T14:47:01.132Z,98920.66
2022-08-05T14:50:18.071Z,98932.84
2022-08-05T14:53:29.898Z,98931.56
2022-08-05T14:56:44.337Z,98931.75
2022-08-05T14:59:57.799Z,98944.97
2022-08-05T15:03:09.506Z,98959.13
2022-08-05T15:06:19.343Z,98956.13
2022-08-05T15:09:51.555Z,98958.25
2022-08-05T15:13:04.895Z,98957.06
2022-08-05T15:16:22.888Z,98952.41
2022-08-05T15:19:32.893Z,98954.34
2022-08-05T15:22:42.456Z,98961.28
2022-08-05T15:25:55.920Z,98965.47
2022-08-05T15:29:08.124Z,98968.81
2022-08-05T15:32:18.859Z,98972.38
2022-08-05T15:35:36.329Z,98976.84
2022-08-05T15:40:58.278Z,98980.78
2022-08-05T15:42:49.936Z,98990.16
2022-08-05T15:46:00.284Z,98980.38
2022-08-05T15:49:23.130Z,98996.66
2022-08-05T15:52:54.424Z,98998.16
2022-08-05T15:56:08.083Z,98986.03
2022-08-05T15:59:22.970Z,98993.50
2022-08-05T16:02:32.918Z,99000.34
2022-08-05T16:05:43.955Z,98997.81
2022-08-05T16:09:00.407Z,98993.16
2022-08-05T16:12:15.239Z,98995.84
2022-08-05T16:15:25.150Z,99007.25
2022-08-05T16:18:52.768Z,99003.69
2022-08-05T16:22:04.846Z,99002.09
2022-08-05T16:25:21.837Z,99015.19
2022-08-05T16:28:42.137Z,99023.81
2022-08-05T16:31:57.153Z,99022.94
2022-08-05T16:35:08.054Z,99017.72
2022-08-05T16:38:25.265Z,99027.19
2022-08-05T16:42:13.616Z,99031.63
2022-08-05T16:46:04.753Z,99031.88
2022-08-05T16:48:43.987Z,99028.06
2022-08-05T16:51:54.871Z,99038.03
2022-08-05T16:55:09.267Z,99032.16
2022-08-05T16:58:19.669Z,99036.06
2022-08-05T17:01:53.191Z,99039.53
2022-08-05T17:04:59.204Z,99036.78
2022-08-05T17:08:09.327Z,99040.53
2022-08-05T17:11:27.599Z,99049.63
2022-08-05T17:14:38.346Z,99052.31
2022-08-05T17:17:55.245Z,99052.47
2022-08-05T17:21:05.042Z,99053.63
2022-08-05T17:24:28.158Z,99053.84
2022-08-05T17:27:43.521Z,99053.25
2022-08-05T17:30:55.364Z,99052.38
2022-08-05T17:34:05.051Z,99059.28
2022-08-05T17:37:40.721Z,99062.94
2022-08-05T17:40:44.574Z,99058.00
2022-08-05T17:43:58.335Z,99046.66
2022-08-05T17:47:08.691Z,99055.47
2022-08-05T17:50:28.888Z,99060.97
2022-08-05T17:53:39.724Z,99061.56
2022-08-05T17:56:56.287Z,99059.75
2022-08-05T18:00:14.334Z,99057.91
2022-08-05T18:03:56.129Z,99062.94
2022-08-05T18:06:54.314Z,99063.03
2022-08-05T18:10:11.526Z,99064.81
2022-08-05T18:13:25.742Z,99070.06
2022-08-05T18:16:51.280Z,99076.97
2022-08-05T18:20:04.302Z,99074.25
2022-08-05T18:23:13.859Z,99074.03
2022-08-05T18:26:32.034Z,99079.78
2022-08-05T18:29:48.216Z,99091.78
2022-08-05T18:33:08.521Z,99085.50
2022-08-05T18:36:27.924Z,99090.69
2022-08-05T18:40:29.613Z,99100.06
2022-08-05T18:43:16.412Z,99103.03
2022-08-05T18:46:28.952Z,99112.25
2022-08-05T18:49:58.428Z,99121.66
2022-08-05T18:53:19.170Z,99130.13
2022-08-05T18:56:32.205Z,99130.44
2022-08-05T19:00:02.578Z,99132.75
2022-08-05T19:03:16.086Z,99144.50
2022-08-05T19:06:37.350Z,99146.50
2022-08-05T19:09:54.687Z,99163.22
2022-08-05T19:13:04.903Z,99165.22
2022-08-05T19:16:28.523Z,99170.63
2022-08-05T19:19:47.050Z,99187.47
2022-08-05T19:23:01.736Z,99189.75
2022-08-05T19:26:17.404Z,99197.91
2022-08-05T19:29:35.925Z,99207.72
2022-08-05T19:32:46.500Z,99219.69
2022-08-05T19:35:57.735Z,99225.41
2022-08-05T19:39:10.971Z,99236.19
2022-08-05T19:42:34.913Z,99240.84
2022-08-05T19:45:54.678Z,99238.69
2022-08-05T19:49:06.938Z,99243.53
2022-08-05T19:52:30.396Z,99251.59
2022-08-05T19:56:14.497Z,99250.50
2022-08-05T19:59:54.670Z,99254.84
2022-08-05T20:02:52.780Z,99256.34
2022-08-05T20:06:11.878Z,99260.38
2022-08-05T20:09:25.609Z,99265.97
2022-08-05T20:12:36.701Z,99266.34
2022-08-05T20:15:51.944Z,99279.88
2022-08-05T20:19:05.501Z,99288.34
2022-08-05T20:22:15.106Z,99289.69
2022-08-05T20:25:24.682Z,99286.78
2022-08-05T20:28:50.129Z,99290.78
2022-08-05T20:32:01.823Z,99293.84
2022-08-05T20:35:12.491Z,99309.28
2022-08-05T20:38:29.539Z,99314.25
2022-08-05T20:41:49.129Z,99309.00
2022-08-05T20:45:17.064Z,99323.41
2022-08-05T20:48:35.374Z,99324.91
2022-08-05T20:51:46.335Z,99332.22
2022-08-05T20:55:55.473Z,99341.59
2022-08-05T20:58:35.171Z,99360.34
2022-08-05T21:01:51.508Z,99354.03
2022-08-05T21:05:02.483Z,99355.50
2022-08-05T21:08:12.062Z,99366.22
2022-08-05T21:12:10.424Z,99372.22
2022-08-05T21:14:56.582Z,99373.69
2022-08-05T21:18:09.455Z,99371.56
2022-08-05T21:21:26.377Z,99373.56
2022-08-05T21:24:54.099Z,99382.41
2022-08-05T21:28:04.631Z,99381.91
2022-08-05T21:31:14.217Z,99384.50
2022-08-05T21:34:28.232Z,99389.94
